sensor_id;sensor_type;location;lat;lon;timestamp;P1;durP1;ratioP1;P2;durP2;ratioP2
72325;SDS011;60278;47.980;18.780;2022-09-29T00:03:19;4.70;;;2.47;;
72325;SDS011;60278;47.980;18.780;2022-09-29T00:06:51;7.07;;;2.80;;
72325;SDS011;60278;47.980;18.780;2022-09-29T00:10:22;4.88;;;2.72;;
72325;SDS011;60278;47.980;18.780;2022-09-29T00:13:53;9.27;;;2.83;;
72325;SDS011;60278;47.980;18.780;2022-09-29T00:17:24;5.77;;;2.67;;
72325;SDS011;60278;47.980;18.780;2022-09-29T00:20:59;6.07;;;2.35;;
72325;SDS011;60278;47.980;18.780;2022-09-29T00:24:32;5.20;;;2.53;;
72325;SDS011;60278;47.980;18.780;2022-09-29T00:28:04;8.00;;;3.10;;
72325;SDS011;60278;47.980;18.780;2022-09-29T00:31:35;5.35;;;2.70;;
72325;SDS011;60278;47.980;18.780;2022-09-29T00:35:06;8.02;;;2.65;;
72325;SDS011;60278;47.980;18.780;2022-09-29T00:38:39;5.30;;;2.70;;
72325;SDS011;60278;47.980;18.780;2022-09-29T00:42:11;5.75;;;2.85;;
72325;SDS011;60278;47.980;18.780;2022-09-29T00:45:42;5.78;;;2.88;;
72325;SDS011;60278;47.980;18.780;2022-09-29T00:49:16;7.13;;;3.15;;
72325;SDS011;60278;47.980;18.780;2022-09-29T00:52:59;6.83;;;3.33;;
72325;SDS011;60278;47.980;18.780;2022-09-29T00:56:33;6.22;;;3.25;;
72325;SDS011;60278;47.980;18.780;2022-09-29T01:00:08;6.90;;;2.92;;
72325;SDS011;60278;47.980;18.780;2022-09-29T01:03:42;6.43;;;2.83;;
72325;SDS011;60278;47.980;18.780;2022-09-29T01:07:16;8.40;;;3.30;;
72325;SDS011;60278;47.980;18.780;2022-09-29T01:10:47;6.22;;;3.53;;
72325;SDS011;60278;47.980;18.780;2022-09-29T01:14:20;7.57;;;3.90;;
72325;SDS011;60278;47.980;18.780;2022-09-29T01:17:52;6.50;;;3.22;;
72325;SDS011;60278;47.980;18.780;2022-09-29T01:21:27;5.38;;;2.75;;
72325;SDS011;60278;47.980;18.780;2022-09-29T01:36:44;9.05;;;2.90;;
72325;SDS011;60278;47.980;18.780;2022-09-29T01:40:29;7.83;;;3.57;;
72325;SDS011;60278;47.980;18.780;2022-09-29T01:44:26;7.38;;;3.42;;
72325;SDS011;60278;47.980;18.780;2022-09-29T01:48:04;6.55;;;3.38;;
72325;SDS011;60278;47.980;18.780;2022-09-29T01:55:22;7.60;;;3.60;;
72325;SDS011;60278;47.980;18.780;2022-09-29T01:59:01;6.20;;;3.88;;
72325;SDS011;60278;47.980;18.780;2022-09-29T02:03:07;8.35;;;3.78;;
72325;SDS011;60278;47.980;18.780;2022-09-29T02:06:47;8.27;;;3.77;;
72325;SDS011;60278;47.980;18.780;2022-09-29T02:10:31;6.78;;;3.92;;
72325;SDS011;60278;47.980;18.780;2022-09-29T02:14:09;7.90;;;3.85;;
72325;SDS011;60278;47.980;18.780;2022-09-29T02:17:46;7.33;;;3.20;;
72325;SDS011;60278;47.980;18.780;2022-09-29T02:21:20;6.25;;;3.67;;
72325;SDS011;60278;47.980;18.780;2022-09-29T02:24:54;6.72;;;3.13;;
72325;SDS011;60278;47.980;18.780;2022-09-29T02:28:28;6.17;;;3.30;;
72325;SDS011;60278;47.980;18.780;2022-09-29T02:32:00;6.40;;;3.30;;
72325;SDS011;60278;47.980;18.780;2022-09-29T02:35:41;7.43;;;4.00;;
72325;SDS011;60278;47.980;18.780;2022-09-29T02:42:55;7.57;;;4.33;;
72325;SDS011;60278;47.980;18.780;2022-09-29T03:01:48;11.27;;;6.07;;
72325;SDS011;60278;47.980;18.780;2022-09-29T03:05:21;16.87;;;7.40;;
72325;SDS011;60278;47.980;18.780;2022-09-29T03:08:53;9.68;;;4.78;;
72325;SDS011;60278;47.980;18.780;2022-09-29T03:12:24;8.60;;;5.50;;
72325;SDS011;60278;47.980;18.780;2022-09-29T03:15:55;7.55;;;4.68;;
72325;SDS011;60278;47.980;18.780;2022-09-29T03:19:26;7.43;;;4.30;;
72325;SDS011;60278;47.980;18.780;2022-09-29T03:22:57;8.43;;;4.40;;
72325;SDS011;60278;47.980;18.780;2022-09-29T03:26:28;9.77;;;4.80;;
72325;SDS011;60278;47.980;18.780;2022-09-29T03:29:59;10.50;;;5.50;;
72325;SDS011;60278;47.980;18.780;2022-09-29T03:33:30;9.40;;;5.30;;
72325;SDS011;60278;47.980;18.780;2022-09-29T03:37:01;10.05;;;4.95;;
72325;SDS011;60278;47.980;18.780;2022-09-29T03:40:32;9.17;;;4.87;;
72325;SDS011;60278;47.980;18.780;2022-09-29T03:44:03;11.38;;;5.38;;
72325;SDS011;60278;47.980;18.780;2022-09-29T03:47:34;15.40;;;5.93;;
72325;SDS011;60278;47.980;18.780;2022-09-29T03:51:05;15.48;;;8.82;;
72325;SDS011;60278;47.980;18.780;2022-09-29T03:54:36;14.97;;;8.80;;
72325;SDS011;60278;47.980;18.780;2022-09-29T03:58:07;18.77;;;10.23;;
72325;SDS011;60278;47.980;18.780;2022-09-29T04:01:38;14.00;;;7.90;;
72325;SDS011;60278;47.980;18.780;2022-09-29T04:05:10;12.87;;;7.30;;
72325;SDS011;60278;47.980;18.780;2022-09-29T04:08:42;13.25;;;7.07;;
72325;SDS011;60278;47.980;18.780;2022-09-29T04:12:13;12.75;;;6.63;;
72325;SDS011;60278;47.980;18.780;2022-09-29T04:15:44;13.80;;;6.90;;
72325;SDS011;60278;47.980;18.780;2022-09-29T04:19:15;12.50;;;6.80;;
72325;SDS011;60278;47.980;18.780;2022-09-29T04:22:46;13.43;;;6.35;;
72325;SDS011;60278;47.980;18.780;2022-09-29T04:26:17;12.20;;;7.22;;
72325;SDS011;60278;47.980;18.780;2022-09-29T04:29:50;11.47;;;6.70;;
72325;SDS011;60278;47.980;18.780;2022-09-29T04:33:21;13.27;;;6.93;;
72325;SDS011;60278;47.980;18.780;2022-09-29T04:36:52;12.07;;;6.75;;
72325;SDS011;60278;47.980;18.780;2022-09-29T04:40:24;12.13;;;7.17;;
72325;SDS011;60278;47.980;18.780;2022-09-29T04:43:55;11.95;;;7.22;;
72325;SDS011;60278;47.980;18.780;2022-09-29T04:47:26;12.40;;;6.13;;
72325;SDS011;60278;47.980;18.780;2022-09-29T04:50:57;11.30;;;6.50;;
72325;SDS011;60278;47.980;18.780;2022-09-29T04:54:34;12.20;;;7.47;;
72325;SDS011;60278;47.980;18.780;2022-09-29T04:58:05;18.13;;;7.10;;
72325;SDS011;60278;47.980;18.780;2022-09-29T05:01:36;12.63;;;7.30;;
72325;SDS011;60278;47.980;18.780;2022-09-29T05:05:07;12.77;;;6.63;;
72325;SDS011;60278;47.980;18.780;2022-09-29T05:08:39;11.82;;;6.80;;
72325;SDS011;60278;47.980;18.780;2022-09-29T05:12:11;13.05;;;6.75;;
72325;SDS011;60278;47.980;18.780;2022-09-29T05:15:42;10.53;;;6.43;;
72325;SDS011;60278;47.980;18.780;2022-09-29T05:19:13;10.18;;;5.55;;
72325;SDS011;60278;47.980;18.780;2022-09-29T05:22:44;11.27;;;4.25;;
72325;SDS011;60278;47.980;18.780;2022-09-29T05:26:15;7.27;;;4.43;;
72325;SDS011;60278;47.980;18.780;2022-09-29T05:29:46;4.97;;;2.97;;
72325;SDS011;60278;47.980;18.780;2022-09-29T05:33:17;3.78;;;2.30;;
72325;SDS011;60278;47.980;18.780;2022-09-29T05:36:48;3.63;;;2.10;;
72325;SDS011;60278;47.980;18.780;2022-09-29T05:40:19;3.83;;;1.90;;
72325;SDS011;60278;47.980;18.780;2022-09-29T05:43:53;3.38;;;1.77;;
72325;SDS011;60278;47.980;18.780;2022-09-29T05:47:25;3.03;;;1.67;;
72325;SDS011;60278;47.980;18.780;2022-09-29T05:50:56;3.30;;;1.83;;
72325;SDS011;60278;47.980;18.780;2022-09-29T05:54:28;3.35;;;1.75;;
72325;SDS011;60278;47.980;18.780;2022-09-29T05:57:59;3.08;;;1.67;;
72325;SDS011;60278;47.980;18.780;2022-09-29T06:01:30;5.67;;;2.20;;
72325;SDS011;60278;47.980;18.780;2022-09-29T06:05:02;3.15;;;1.83;;
72325;SDS011;60278;47.980;18.780;2022-09-29T06:08:33;3.58;;;1.80;;
72325;SDS011;60278;47.980;18.780;2022-09-29T06:12:05;4.03;;;2.00;;
72325;SDS011;60278;47.980;18.780;2022-09-29T06:15:36;5.53;;;2.70;;
72325;SDS011;60278;47.980;18.780;2022-09-29T06:19:07;4.30;;;2.60;;
72325;SDS011;60278;47.980;18.780;2022-09-29T06:22:38;3.60;;;2.00;;
72325;SDS011;60278;47.980;18.780;2022-09-29T06:26:10;3.47;;;1.80;;
72325;SDS011;60278;47.980;18.780;2022-09-29T06:29:43;3.38;;;1.90;;
72325;SDS011;60278;47.980;18.780;2022-09-29T06:33:14;4.15;;;1.70;;
72325;SDS011;60278;47.980;18.780;2022-09-29T06:36:45;3.47;;;2.03;;
72325;SDS011;60278;47.980;18.780;2022-09-29T06:40:35;7.82;;;3.88;;
72325;SDS011;60278;47.980;18.780;2022-09-29T06:44:06;6.18;;;3.40;;
72325;SDS011;60278;47.980;18.780;2022-09-29T06:47:37;3.35;;;1.90;;
72325;SDS011;60278;47.980;18.780;2022-09-29T06:51:08;2.60;;;1.67;;
72325;SDS011;60278;47.980;18.780;2022-09-29T06:54:39;4.78;;;1.98;;
72325;SDS011;60278;47.980;18.780;2022-09-29T06:58:10;3.97;;;2.00;;
72325;SDS011;60278;47.980;18.780;2022-09-29T07:01:41;4.20;;;2.40;;
72325;SDS011;60278;47.980;18.780;2022-09-29T07:05:13;3.70;;;2.20;;
72325;SDS011;60278;47.980;18.780;2022-09-29T07:08:44;13.60;;;6.72;;
72325;SDS011;60278;47.980;18.780;2022-09-29T07:12:15;7.43;;;2.87;;
72325;SDS011;60278;47.980;18.780;2022-09-29T07:15:46;5.90;;;2.55;;
72325;SDS011;60278;47.980;18.780;2022-09-29T07:19:17;5.60;;;3.55;;
72325;SDS011;60278;47.980;18.780;2022-09-29T07:22:49;3.90;;;2.30;;
72325;SDS011;60278;47.980;18.780;2022-09-29T07:26:20;3.57;;;2.17;;
72325;SDS011;60278;47.980;18.780;2022-09-29T07:29:52;4.43;;;2.00;;
72325;SDS011;60278;47.980;18.780;2022-09-29T07:33:23;4.60;;;3.20;;
72325;SDS011;60278;47.980;18.780;2022-09-29T07:36:54;4.63;;;2.37;;
72325;SDS011;60278;47.980;18.780;2022-09-29T07:40:25;5.53;;;3.58;;
72325;SDS011;60278;47.980;18.780;2022-09-29T07:43:57;2.63;;;1.60;;
72325;SDS011;60278;47.980;18.780;2022-09-29T07:47:28;5.33;;;1.27;;
72325;SDS011;60278;47.980;18.780;2022-09-29T07:51:00;7.15;;;3.47;;
72325;SDS011;60278;47.980;18.780;2022-09-29T07:54:32;3.80;;;2.17;;
72325;SDS011;60278;47.980;18.780;2022-09-29T07:58:04;4.25;;;1.45;;
72325;SDS011;60278;47.980;18.780;2022-09-29T08:01:35;3.67;;;1.40;;
72325;SDS011;60278;47.980;18.780;2022-09-29T08:05:06;2.83;;;1.60;;
72325;SDS011;60278;47.980;18.780;2022-09-29T08:08:38;3.55;;;1.80;;
72325;SDS011;60278;47.980;18.780;2022-09-29T08:12:11;4.40;;;1.97;;
72325;SDS011;60278;47.980;18.780;2022-09-29T08:15:42;4.38;;;2.20;;
72325;SDS011;60278;47.980;18.780;2022-09-29T08:19:13;4.30;;;1.80;;
72325;SDS011;60278;47.980;18.780;2022-09-29T08:22:44;2.80;;;1.53;;
72325;SDS011;60278;47.980;18.780;2022-09-29T08:26:17;2.70;;;1.60;;
72325;SDS011;60278;47.980;18.780;2022-09-29T08:29:50;4.63;;;1.83;;
72325;SDS011;60278;47.980;18.780;2022-09-29T08:33:21;4.43;;;1.90;;
72325;SDS011;60278;47.980;18.780;2022-09-29T08:36:52;2.57;;;1.40;;
72325;SDS011;60278;47.980;18.780;2022-09-29T08:40:26;3.50;;;2.25;;
72325;SDS011;60278;47.980;18.780;2022-09-29T08:47:55;10.00;;;4.83;;
72325;SDS011;60278;47.980;18.780;2022-09-29T08:51:40;4.00;;;2.30;;
72325;SDS011;60278;47.980;18.780;2022-09-29T08:58:47;2.90;;;1.83;;
72325;SDS011;60278;47.980;18.780;2022-09-29T09:02:43;2.65;;;1.50;;
72325;SDS011;60278;47.980;18.780;2022-09-29T09:21:56;3.15;;;1.65;;
72325;SDS011;60278;47.980;18.780;2022-09-29T09:25:51;2.90;;;1.60;;
72325;SDS011;60278;47.980;18.780;2022-09-29T09:33:15;3.03;;;1.60;;
72325;SDS011;60278;47.980;18.780;2022-09-29T09:37:35;3.30;;;1.60;;
72325;SDS011;60278;47.980;18.780;2022-09-29T09:40:48;3.80;;;1.70;;
72325;SDS011;60278;47.980;18.780;2022-09-29T09:44:27;2.85;;;1.60;;
72325;SDS011;60278;47.980;18.780;2022-09-29T09:55:24;6.82;;;2.80;;
72325;SDS011;60278;47.980;18.780;2022-09-29T10:02:37;3.53;;;1.60;;
72325;SDS011;60278;47.980;18.780;2022-09-29T10:06:13;3.42;;;1.60;;
72325;SDS011;60278;47.980;18.780;2022-09-29T10:09:44;3.05;;;1.80;;
72325;SDS011;60278;47.980;18.780;2022-09-29T10:13:16;3.00;;;1.63;;
72325;SDS011;60278;47.980;18.780;2022-09-29T10:16:48;3.75;;;1.60;;
72325;SDS011;60278;47.980;18.780;2022-09-29T10:20:30;4.18;;;2.03;;
72325;SDS011;60278;47.980;18.780;2022-09-29T10:24:04;4.82;;;1.83;;
72325;SDS011;60278;47.980;18.780;2022-09-29T10:27:50;3.17;;;1.70;;
72325;SDS011;60278;47.980;18.780;2022-09-29T10:31:25;3.55;;;1.85;;
72325;SDS011;60278;47.980;18.780;2022-09-29T10:39:37;2.33;;;1.30;;
72325;SDS011;60278;47.980;18.780;2022-09-29T10:43:22;2.60;;;1.30;;
72325;SDS011;60278;47.980;18.780;2022-09-29T10:46:56;4.03;;;2.08;;
72325;SDS011;60278;47.980;18.780;2022-09-29T10:50:29;10.90;;;4.07;;
72325;SDS011;60278;47.980;18.780;2022-09-29T10:54:07;18.95;;;6.93;;
72325;SDS011;60278;47.980;18.780;2022-09-29T10:57:40;7.30;;;3.55;;
72325;SDS011;60278;47.980;18.780;2022-09-29T11:01:15;7.55;;;3.40;;
72325;SDS011;60278;47.980;18.780;2022-09-29T11:04:47;3.73;;;1.90;;
72325;SDS011;60278;47.980;18.780;2022-09-29T11:08:19;7.70;;;2.97;;
72325;SDS011;60278;47.980;18.780;2022-09-29T11:11:56;10.35;;;3.85;;
72325;SDS011;60278;47.980;18.780;2022-09-29T11:15:37;4.80;;;2.67;;
72325;SDS011;60278;47.980;18.780;2022-09-29T11:19:11;9.52;;;4.13;;
72325;SDS011;60278;47.980;18.780;2022-09-29T11:26:47;4.63;;;2.27;;
72325;SDS011;60278;47.980;18.780;2022-09-29T11:30:35;3.65;;;1.65;;
72325;SDS011;60278;47.980;18.780;2022-09-29T11:38:31;3.85;;;1.40;;
72325;SDS011;60278;47.980;18.780;2022-09-29T11:46:26;3.55;;;1.38;;
72325;SDS011;60278;47.980;18.780;2022-09-29T11:50:20;2.58;;;1.08;;
72325;SDS011;60278;47.980;18.780;2022-09-29T11:54:20;1.97;;;1.03;;
72325;SDS011;60278;47.980;18.780;2022-09-29T11:58:33;3.00;;;1.23;;
72325;SDS011;60278;47.980;18.780;2022-09-29T12:09:52;1.90;;;1.00;;
72325;SDS011;60278;47.980;18.780;2022-09-29T12:14:00;3.17;;;1.20;;
72325;SDS011;60278;47.980;18.780;2022-09-29T12:17:35;2.22;;;1.00;;
72325;SDS011;60278;47.980;18.780;2022-09-29T12:21:14;2.80;;;1.20;;
72325;SDS011;60278;47.980;18.780;2022-09-29T12:24:49;3.63;;;1.85;;
72325;SDS011;60278;47.980;18.780;2022-09-29T12:28:26;2.67;;;1.45;;
72325;SDS011;60278;47.980;18.780;2022-09-29T12:32:03;5.40;;;1.30;;
72325;SDS011;60278;47.980;18.780;2022-09-29T12:43:32;9.93;;;3.53;;
72325;SDS011;60278;47.980;18.780;2022-09-29T12:47:15;5.53;;;2.95;;
72325;SDS011;60278;47.980;18.780;2022-09-29T12:51:12;3.92;;;1.60;;
72325;SDS011;60278;47.980;18.780;2022-09-29T12:54:53;5.30;;;3.40;;
72325;SDS011;60278;47.980;18.780;2022-09-29T13:05:53;6.30;;;1.60;;
72325;SDS011;60278;47.980;18.780;2022-09-29T13:10:08;2.53;;;1.27;;
72325;SDS011;60278;47.980;18.780;2022-09-29T13:21:23;9.83;;;5.23;;
72325;SDS011;60278;47.980;18.780;2022-09-29T13:29:21;3.67;;;1.60;;
72325;SDS011;60278;47.980;18.780;2022-09-29T13:32:59;5.90;;;2.72;;
72325;SDS011;60278;47.980;18.780;2022-09-29T13:36:36;5.00;;;2.10;;
72325;SDS011;60278;47.980;18.780;2022-09-29T13:40:15;8.18;;;4.32;;
72325;SDS011;60278;47.980;18.780;2022-09-29T13:47:30;5.27;;;1.23;;
72325;SDS011;60278;47.980;18.780;2022-09-29T13:51:20;2.70;;;1.25;;
72325;SDS011;60278;47.980;18.780;2022-09-29T13:54:53;4.15;;;2.10;;
72325;SDS011;60278;47.980;18.780;2022-09-29T13:58:25;13.73;;;11.07;;
72325;SDS011;60278;47.980;18.780;2022-09-29T14:01:58;20.42;;;17.50;;
72325;SDS011;60278;47.980;18.780;2022-09-29T14:09:03;6.27;;;3.40;;
72325;SDS011;60278;47.980;18.780;2022-09-29T14:12:35;4.73;;;2.10;;
72325;SDS011;60278;47.980;18.780;2022-09-29T14:19:56;5.25;;;2.10;;
72325;SDS011;60278;47.980;18.780;2022-09-29T14:30:59;7.28;;;2.70;;
72325;SDS011;60278;47.980;18.780;2022-09-29T14:34:32;31.10;;;10.67;;
72325;SDS011;60278;47.980;18.780;2022-09-29T14:41:41;7.28;;;2.95;;
72325;SDS011;60278;47.980;18.780;2022-09-29T14:45:13;4.25;;;1.70;;
72325;SDS011;60278;47.980;18.780;2022-09-29T15:00:48;7.70;;;2.50;;
72325;SDS011;60278;47.980;18.780;2022-09-29T15:04:30;7.10;;;2.28;;
72325;SDS011;60278;47.980;18.780;2022-09-29T15:08:42;33.25;;;10.73;;
72325;SDS011;60278;47.980;18.780;2022-09-29T15:12:14;108.10;;;33.93;;
72325;SDS011;60278;47.980;18.780;2022-09-29T15:15:49;80.65;;;27.50;;
72325;SDS011;60278;47.980;18.780;2022-09-29T15:27:00;42.73;;;18.70;;
72325;SDS011;60278;47.980;18.780;2022-09-29T15:30:33;30.50;;;11.73;;
72325;SDS011;60278;47.980;18.780;2022-09-29T15:34:08;14.70;;;7.50;;
72325;SDS011;60278;47.980;18.780;2022-09-29T15:41:20;17.45;;;7.80;;
72325;SDS011;60278;47.980;18.780;2022-09-29T15:44:58;18.80;;;8.68;;
72325;SDS011;60278;47.980;18.780;2022-09-29T15:48:31;16.67;;;7.83;;
72325;SDS011;60278;47.980;18.780;2022-09-29T15:52:03;18.20;;;9.02;;
72325;SDS011;60278;47.980;18.780;2022-09-29T15:55:49;17.02;;;9.65;;
72325;SDS011;60278;47.980;18.780;2022-09-29T15:59:36;16.05;;;8.48;;
72325;SDS011;60278;47.980;18.780;2022-09-29T16:06:46;4.45;;;2.50;;
72325;SDS011;60278;47.980;18.780;2022-09-29T16:10:21;4.35;;;2.20;;
72325;SDS011;60278;47.980;18.780;2022-09-29T16:14:06;5.57;;;1.90;;
72325;SDS011;60278;47.980;18.780;2022-09-29T16:17:41;3.22;;;1.70;;
72325;SDS011;60278;47.980;18.780;2022-09-29T16:21:17;5.60;;;2.78;;
72325;SDS011;60278;47.980;18.780;2022-09-29T16:24:54;3.47;;;1.87;;
72325;SDS011;60278;47.980;18.780;2022-09-29T16:28:38;4.75;;;1.77;;
72325;SDS011;60278;47.980;18.780;2022-09-29T16:36:11;4.20;;;2.20;;
72325;SDS011;60278;47.980;18.780;2022-09-29T16:39:47;10.90;;;5.53;;
72325;SDS011;60278;47.980;18.780;2022-09-29T16:43:20;30.95;;;14.90;;
72325;SDS011;60278;47.980;18.780;2022-09-29T16:50:27;33.77;;;18.97;;
72325;SDS011;60278;47.980;18.780;2022-09-29T16:53:58;37.78;;;21.50;;
72325;SDS011;60278;47.980;18.780;2022-09-29T16:57:30;25.70;;;14.70;;
72325;SDS011;60278;47.980;18.780;2022-09-29T17:01:02;23.30;;;13.70;;
72325;SDS011;60278;47.980;18.780;2022-09-29T17:04:33;24.20;;;13.05;;
72325;SDS011;60278;47.980;18.780;2022-09-29T17:08:05;33.30;;;16.33;;
72325;SDS011;60278;47.980;18.780;2022-09-29T17:11:45;26.02;;;16.35;;
72325;SDS011;60278;47.980;18.780;2022-09-29T17:15:18;31.03;;;15.83;;
72325;SDS011;60278;47.980;18.780;2022-09-29T17:18:50;40.33;;;21.38;;
72325;SDS011;60278;47.980;18.780;2022-09-29T17:25:56;33.80;;;17.10;;
72325;SDS011;60278;47.980;18.780;2022-09-29T17:29:47;28.83;;;18.33;;
72325;SDS011;60278;47.980;18.780;2022-09-29T17:33:18;26.83;;;16.17;;
72325;SDS011;60278;47.980;18.780;2022-09-29T17:36:49;22.50;;;13.77;;
72325;SDS011;60278;47.980;18.780;2022-09-29T17:44:02;28.13;;;15.27;;
72325;SDS011;60278;47.980;18.780;2022-09-29T17:47:35;41.90;;;26.92;;
72325;SDS011;60278;47.980;18.780;2022-09-29T17:51:11;34.53;;;19.60;;
72325;SDS011;60278;47.980;18.780;2022-09-29T17:54:43;44.83;;;26.83;;
72325;SDS011;60278;47.980;18.780;2022-09-29T17:58:15;36.58;;;20.77;;
72325;SDS011;60278;47.980;18.780;2022-09-29T18:01:47;34.43;;;19.13;;
72325;SDS011;60278;47.980;18.780;2022-09-29T18:05:19;33.10;;;19.98;;
72325;SDS011;60278;47.980;18.780;2022-09-29T18:08:53;49.03;;;23.65;;
72325;SDS011;60278;47.980;18.780;2022-09-29T18:12:25;29.30;;;18.50;;
72325;SDS011;60278;47.980;18.780;2022-09-29T18:15:59;32.70;;;20.10;;
72325;SDS011;60278;47.980;18.780;2022-09-29T18:19:31;30.27;;;17.67;;
72325;SDS011;60278;47.980;18.780;2022-09-29T18:23:07;27.75;;;16.52;;
72325;SDS011;60278;47.980;18.780;2022-09-29T18:26:38;23.40;;;15.20;;
72325;SDS011;60278;47.980;18.780;2022-09-29T18:30:18;28.60;;;14.85;;
72325;SDS011;60278;47.980;18.780;2022-09-29T18:33:51;58.13;;;31.83;;
72325;SDS011;60278;47.980;18.780;2022-09-29T18:37:23;53.13;;;29.67;;
72325;SDS011;60278;47.980;18.780;2022-09-29T18:40:55;43.75;;;23.92;;
72325;SDS011;60278;47.980;18.780;2022-09-29T18:44:26;34.30;;;20.70;;
72325;SDS011;60278;47.980;18.780;2022-09-29T18:48:00;38.10;;;23.53;;
72325;SDS011;60278;47.980;18.780;2022-09-29T18:51:33;59.25;;;33.67;;
72325;SDS011;60278;47.980;18.780;2022-09-29T18:55:05;57.53;;;33.45;;
72325;SDS011;60278;47.980;18.780;2022-09-29T18:58:36;25.80;;;16.58;;
72325;SDS011;60278;47.980;18.780;2022-09-29T19:02:10;31.70;;;18.43;;
72325;SDS011;60278;47.980;18.780;2022-09-29T19:05:42;19.73;;;13.27;;
72325;SDS011;60278;47.980;18.780;2022-09-29T19:09:13;26.63;;;12.80;;
72325;SDS011;60278;47.980;18.780;2022-09-29T19:12:45;24.20;;;11.43;;
72325;SDS011;60278;47.980;18.780;2022-09-29T19:16:17;72.20;;;38.00;;
72325;SDS011;60278;47.980;18.780;2022-09-29T19:19:48;26.25;;;16.38;;
72325;SDS011;60278;47.980;18.780;2022-09-29T19:23:20;47.03;;;25.87;;
72325;SDS011;60278;47.980;18.780;2022-09-29T19:26:52;58.25;;;31.23;;
72325;SDS011;60278;47.980;18.780;2022-09-29T19:30:24;59.53;;;31.08;;
72325;SDS011;60278;47.980;18.780;2022-09-29T19:33:56;39.88;;;22.52;;
72325;SDS011;60278;47.980;18.780;2022-09-29T19:37:27;37.63;;;21.33;;
72325;SDS011;60278;47.980;18.780;2022-09-29T19:40:58;30.70;;;18.25;;
72325;SDS011;60278;47.980;18.780;2022-09-29T19:44:30;26.63;;;15.52;;
72325;SDS011;60278;47.980;18.780;2022-09-29T19:48:02;24.50;;;14.63;;
72325;SDS011;60278;47.980;18.780;2022-09-29T19:51:34;24.20;;;15.23;;
72325;SDS011;60278;47.980;18.780;2022-09-29T19:55:27;21.88;;;13.40;;
72325;SDS011;60278;47.980;18.780;2022-09-29T19:58:58;27.13;;;15.17;;
72325;SDS011;60278;47.980;18.780;2022-09-29T20:02:29;27.80;;;16.58;;
72325;SDS011;60278;47.980;18.780;2022-09-29T20:06:00;28.27;;;15.20;;
72325;SDS011;60278;47.980;18.780;2022-09-29T20:09:33;27.05;;;15.52;;
72325;SDS011;60278;47.980;18.780;2022-09-29T20:13:04;21.00;;;11.60;;
72325;SDS011;60278;47.980;18.780;2022-09-29T20:16:36;22.92;;;14.23;;
72325;SDS011;60278;47.980;18.780;2022-09-29T20:20:10;22.80;;;14.18;;
72325;SDS011;60278;47.980;18.780;2022-09-29T20:23:41;23.70;;;14.27;;
72325;SDS011;60278;47.980;18.780;2022-09-29T20:27:12;20.50;;;14.13;;
72325;SDS011;60278;47.980;18.780;2022-09-29T20:30:43;26.38;;;16.20;;
72325;SDS011;60278;47.980;18.780;2022-09-29T20:34:14;24.67;;;13.63;;
72325;SDS011;60278;47.980;18.780;2022-09-29T20:37:47;20.08;;;12.93;;
72325;SDS011;60278;47.980;18.780;2022-09-29T20:41:19;21.33;;;10.70;;
72325;SDS011;60278;47.980;18.780;2022-09-29T20:44:50;34.55;;;16.33;;
72325;SDS011;60278;47.980;18.780;2022-09-29T20:48:25;34.17;;;15.53;;
72325;SDS011;60278;47.980;18.780;2022-09-29T20:51:59;17.60;;;9.90;;
72325;SDS011;60278;47.980;18.780;2022-09-29T20:55:31;13.45;;;4.53;;
72325;SDS011;60278;47.980;18.780;2022-09-29T20:59:04;7.43;;;3.77;;
72325;SDS011;60278;47.980;18.780;2022-09-29T21:02:35;5.65;;;3.30;;
72325;SDS011;60278;47.980;18.780;2022-09-29T21:06:07;8.13;;;3.45;;
72325;SDS011;60278;47.980;18.780;2022-09-29T21:09:38;6.77;;;3.70;;
72325;SDS011;60278;47.980;18.780;2022-09-29T21:13:09;5.70;;;3.22;;
72325;SDS011;60278;47.980;18.780;2022-09-29T21:16:40;5.72;;;3.58;;
72325;SDS011;60278;47.980;18.780;2022-09-29T21:20:12;6.97;;;3.80;;
72325;SDS011;60278;47.980;18.780;2022-09-29T21:23:43;6.50;;;3.90;;
72325;SDS011;60278;47.980;18.780;2022-09-29T21:27:14;14.23;;;6.38;;
72325;SDS011;60278;47.980;18.780;2022-09-29T21:30:45;12.02;;;5.22;;
72325;SDS011;60278;47.980;18.780;2022-09-29T21:34:16;11.17;;;5.07;;
72325;SDS011;60278;47.980;18.780;2022-09-29T21:37:47;10.02;;;4.68;;
72325;SDS011;60278;47.980;18.780;2022-09-29T21:44:59;8.10;;;4.80;;
72325;SDS011;60278;47.980;18.780;2022-09-29T21:48:32;14.35;;;4.82;;
72325;SDS011;60278;47.980;18.780;2022-09-29T21:52:04;13.50;;;6.00;;
72325;SDS011;60278;47.980;18.780;2022-09-29T21:55:39;9.40;;;5.28;;
72325;SDS011;60278;47.980;18.780;2022-09-29T21:59:11;8.33;;;4.73;;
72325;SDS011;60278;47.980;18.780;2022-09-29T22:02:45;10.23;;;4.72;;
72325;SDS011;60278;47.980;18.780;2022-09-29T22:06:17;12.70;;;6.07;;
72325;SDS011;60278;47.980;18.780;2022-09-29T22:09:49;10.23;;;6.20;;
72325;SDS011;60278;47.980;18.780;2022-09-29T22:13:21;13.30;;;6.70;;
72325;SDS011;60278;47.980;18.780;2022-09-29T22:16:54;13.68;;;5.82;;
72325;SDS011;60278;47.980;18.780;2022-09-29T22:20:25;10.40;;;5.53;;
72325;SDS011;60278;47.980;18.780;2022-09-29T22:23:57;9.13;;;5.35;;
72325;SDS011;60278;47.980;18.780;2022-09-29T22:27:31;11.00;;;6.05;;
72325;SDS011;60278;47.980;18.780;2022-09-29T22:31:03;12.65;;;6.15;;
72325;SDS011;60278;47.980;18.780;2022-09-29T22:34:35;8.47;;;4.67;;
72325;SDS011;60278;47.980;18.780;2022-09-29T22:38:07;12.55;;;5.60;;
72325;SDS011;60278;47.980;18.780;2022-09-29T22:41:39;7.85;;;4.57;;
72325;SDS011;60278;47.980;18.780;2022-09-29T22:45:10;7.03;;;3.80;;
72325;SDS011;60278;47.980;18.780;2022-09-29T22:48:41;8.02;;;4.05;;
72325;SDS011;60278;47.980;18.780;2022-09-29T22:52:12;6.85;;;3.90;;
72325;SDS011;60278;47.980;18.780;2022-09-29T22:55:43;6.07;;;4.13;;
72325;SDS011;60278;47.980;18.780;2022-09-29T22:59:14;5.15;;;3.38;;
72325;SDS011;60278;47.980;18.780;2022-09-29T23:02:45;6.15;;;3.83;;
72325;SDS011;60278;47.980;18.780;2022-09-29T23:06:17;8.05;;;4.38;;
72325;SDS011;60278;47.980;18.780;2022-09-29T23:09:48;8.53;;;3.43;;
72325;SDS011;60278;47.980;18.780;2022-09-29T23:13:19;8.00;;;4.85;;
72325;SDS011;60278;47.980;18.780;2022-09-29T23:16:50;7.55;;;4.68;;
72325;SDS011;60278;47.980;18.780;2022-09-29T23:20:21;9.60;;;5.47;;
72325;SDS011;60278;47.980;18.780;2022-09-29T23:23:53;12.18;;;5.68;;
72325;SDS011;60278;47.980;18.780;2022-09-29T23:27:29;8.55;;;5.13;;
72325;SDS011;60278;47.980;18.780;2022-09-29T23:31:04;9.67;;;5.73;;
72325;SDS011;60278;47.980;18.780;2022-09-29T23:34:36;24.20;;;11.75;;
72325;SDS011;60278;47.980;18.780;2022-09-29T23:38:08;11.25;;;5.88;;
72325;SDS011;60278;47.980;18.780;2022-09-29T23:41:58;8.88;;;5.22;;
72325;SDS011;60278;47.980;18.780;2022-09-29T23:45:29;8.43;;;4.90;;
72325;SDS011;60278;47.980;18.780;2022-09-29T23:49:01;12.32;;;5.55;;
72325;SDS011;60278;47.980;18.780;2022-09-29T23:52:38;6.70;;;4.20;;
72325;SDS011;60278;47.980;18.780;2022-09-29T23:56:09;7.00;;;3.90;;
72325;SDS011;60278;47.980;18.780;2022-09-29T23:59:40;7.38;;;3.83;;
